createdAt,value
2023-04-19T00:01:23.360Z,3.08
2023-04-19T00:03:50.916Z,2.95
2023-04-19T00:06:18.294Z,2.77
2023-04-19T00:08:45.469Z,3.35
2023-04-19T00:11:12.666Z,3.00
2023-04-19T00:13:39.861Z,2.72
2023-04-19T00:16:07.928Z,2.85
2023-04-19T00:18:38.815Z,3.10
2023-04-19T00:21:06.356Z,2.75
2023-04-19T00:23:33.592Z,2.92
2023-04-19T00:26:03.003Z,3.00
2023-04-19T00:28:30.803Z,2.67
2023-04-19T00:30:58.086Z,2.37
2023-04-19T00:33:25.532Z,3.08
2023-04-19T00:35:54.089Z,2.28
2023-04-19T00:38:21.295Z,2.80
2023-04-19T00:40:48.489Z,2.42
2023-04-19T00:43:18.472Z,2.47
2023-04-19T00:45:47.341Z,2.67
2023-04-19T00:48:15.076Z,2.55
2023-04-19T00:50:43.336Z,2.80
2023-04-19T00:53:12.403Z,2.60
2023-04-19T00:55:40.043Z,2.73
2023-04-19T00:58:08.618Z,2.80
2023-04-19T01:00:36.188Z,2.72
2023-04-19T01:03:04.119Z,2.42
2023-04-19T01:05:31.563Z,2.50
2023-04-19T01:07:58.848Z,2.33
2023-04-19T01:10:27.957Z,2.53
2023-04-19T01:12:57.642Z,2.40
2023-04-19T01:15:24.814Z,2.40
2023-04-19T01:17:52.145Z,2.28
2023-04-19T01:20:20.580Z,2.10
2023-04-19T01:22:49.125Z,2.47
2023-04-19T01:25:16.792Z,2.35
2023-04-19T01:27:44.443Z,2.13
2023-04-19T01:30:12.498Z,2.40
2023-04-19T01:32:39.809Z,2.60
2023-04-19T01:35:07.760Z,2.40
2023-04-19T01:37:35.700Z,2.42
2023-04-19T01:40:05.574Z,2.70
2023-04-19T01:42:32.937Z,2.50
2023-04-19T01:45:01.250Z,2.47
2023-04-19T01:47:28.618Z,2.55
2023-04-19T01:49:55.912Z,2.42
2023-04-19T01:52:23.115Z,2.63
2023-04-19T01:54:50.311Z,2.35
2023-04-19T01:57:18.961Z,2.83
2023-04-19T01:59:46.184Z,2.10
2023-04-19T02:02:13.450Z,2.15
2023-04-19T02:04:40.682Z,2.05
2023-04-19T02:07:07.948Z,2.55
2023-04-19T02:09:35.763Z,2.60
2023-04-19T02:12:04.010Z,1.95
2023-04-19T02:14:32.516Z,2.28
2023-04-19T02:16:59.729Z,2.80
2023-04-19T02:19:27.354Z,2.50
2023-04-19T02:21:57.665Z,2.40
2023-04-19T02:24:24.910Z,2.70
2023-04-19T02:26:52.243Z,2.60
2023-04-19T02:29:19.468Z,2.20
2023-04-19T02:31:48.265Z,2.67
2023-04-19T02:34:15.772Z,2.53
2023-04-19T02:36:43.217Z,2.42
2023-04-19T02:39:10.497Z,2.60
2023-04-19T02:41:39.406Z,2.80
2023-04-19T02:44:06.656Z,2.55
2023-04-19T02:46:34.891Z,2.10
2023-04-19T02:49:03.737Z,2.20
2023-04-19T02:51:31.056Z,2.25
2023-04-19T02:53:58.676Z,2.28
2023-04-19T02:56:26.272Z,2.40
2023-04-19T02:58:55.301Z,2.30
2023-04-19T03:01:22.680Z,2.35
2023-04-19T03:03:50.024Z,2.15
2023-04-19T03:06:19.037Z,2.30
2023-04-19T03:08:46.316Z,1.80
2023-04-19T03:11:15.697Z,2.10
2023-04-19T03:13:43.081Z,2.10
2023-04-19T03:16:10.550Z,2.00
2023-04-19T03:18:37.963Z,2.10
2023-04-19T03:21:09.336Z,2.08
2023-04-19T03:23:52.427Z,2.30
2023-04-19T03:26:20.079Z,2.03
2023-04-19T03:28:50.963Z,2.20
2023-04-19T03:31:23.917Z,2.20
2023-04-19T03:33:53.630Z,1.90
2023-04-19T03:36:26.853Z,1.87
2023-04-19T03:38:55.421Z,1.92
2023-04-19T03:41:24.951Z,2.00
2023-04-19T03:44:12.304Z,2.17
2023-04-19T03:46:43.097Z,2.10
2023-04-19T03:49:10.824Z,2.20
2023-04-19T03:51:38.387Z,2.03
2023-04-19T03:54:08.924Z,2.13
2023-04-19T03:56:36.083Z,2.08
2023-04-19T03:59:03.334Z,2.00
2023-04-19T04:01:34.068Z,1.90
2023-04-19T04:04:04.805Z,2.20
2023-04-19T04:06:32.400Z,1.95
2023-04-19T04:08:59.662Z,2.38
2023-04-19T04:11:28.241Z,2.10
2023-04-19T04:13:56.480Z,2.27
2023-04-19T04:16:28.210Z,2.50
2023-04-19T04:18:56.430Z,2.08
2023-04-19T04:21:27.121Z,2.03
2023-04-19T04:23:56.541Z,2.30
2023-04-19T04:26:35.236Z,1.77
2023-04-19T04:29:21.513Z,1.90
2023-04-19T04:31:50.872Z,1.60
2023-04-19T04:34:22.816Z,2.00
2023-04-19T04:36:55.569Z,2.15
2023-04-19T04:39:24.100Z,1.87
2023-04-19T04:41:53.133Z,2.22
2023-04-19T04:44:20.702Z,2.25
2023-04-19T04:46:48.314Z,1.83
2023-04-19T04:49:21.040Z,2.08
2023-04-19T04:51:48.251Z,2.30
2023-04-19T04:54:16.046Z,1.80
2023-04-19T04:56:44.373Z,1.98
2023-04-19T04:59:13.818Z,2.30
2023-04-19T05:01:44.480Z,2.05
2023-04-19T05:04:12.633Z,2.20
2023-04-19T05:06:49.354Z,1.75
2023-04-19T05:09:22.700Z,1.60
2023-04-19T05:12:16.470Z,1.88
2023-04-19T05:14:45.208Z,1.92
2023-04-19T05:17:12.550Z,1.80
2023-04-19T05:19:39.772Z,1.98
2023-04-19T05:22:08.187Z,2.05
2023-04-19T05:24:37.631Z,2.08
2023-04-19T05:27:04.900Z,2.00
2023-04-19T05:29:32.470Z,1.97
2023-04-19T05:32:01.212Z,1.90
2023-04-19T05:34:31.578Z,1.48
2023-04-19T05:36:59.855Z,2.10
2023-04-19T05:39:27.121Z,1.95
2023-04-19T05:41:54.405Z,1.47
2023-04-19T05:44:21.584Z,1.92
2023-04-19T05:46:48.888Z,1.83
2023-04-19T05:49:26.638Z,2.33
2023-04-19T05:52:12.033Z,2.03
2023-04-19T05:54:47.383Z,2.00
2023-04-19T05:57:14.675Z,1.92
2023-04-19T05:59:42.338Z,1.88
2023-04-19T06:02:10.849Z,1.75
2023-04-19T06:04:39.782Z,1.80
2023-04-19T06:07:13.589Z,2.10
2023-04-19T06:09:49.329Z,2.60
2023-04-19T06:12:16.596Z,2.10
2023-04-19T06:14:45.496Z,2.00
2023-04-19T06:17:12.740Z,1.88
2023-04-19T06:19:41.347Z,2.00
2023-04-19T06:22:08.588Z,1.55
2023-04-19T06:24:35.811Z,1.90
2023-04-19T06:27:03.079Z,1.35
2023-04-19T06:29:30.273Z,1.85
2023-04-19T06:31:57.580Z,1.60
2023-04-19T06:34:24.894Z,1.80
2023-04-19T06:36:53.541Z,1.90
2023-04-19T06:39:20.856Z,1.90
2023-04-19T06:41:48.085Z,2.00
2023-04-19T06:44:17.595Z,1.70
2023-04-19T06:46:44.965Z,1.42
2023-04-19T06:49:12.215Z,1.67
2023-04-19T06:51:40.100Z,1.63
2023-04-19T06:54:08.638Z,1.63
2023-04-19T06:56:46.251Z,1.70
2023-04-19T06:59:14.358Z,1.63
2023-04-19T07:01:41.707Z,1.50
2023-04-19T07:04:09.322Z,1.42
2023-04-19T07:06:37.257Z,1.75
2023-04-19T07:09:06.037Z,1.63
2023-04-19T07:11:34.767Z,1.73
2023-04-19T07:14:02.119Z,1.67
2023-04-19T07:16:29.397Z,1.60
2023-04-19T07:18:57.155Z,1.55
2023-04-19T07:21:32.708Z,1.67
2023-04-19T07:24:00.011Z,1.50
2023-04-19T07:26:27.251Z,1.60
2023-04-19T07:28:56.867Z,1.83
2023-04-19T07:31:27.040Z,1.90
2023-04-19T07:33:54.588Z,1.40
2023-04-19T07:36:21.815Z,1.67
2023-04-19T07:38:49.064Z,1.48
2023-04-19T07:41:16.290Z,1.52
2023-04-19T07:43:43.608Z,1.75
2023-04-19T07:46:13.361Z,1.80
2023-04-19T07:48:40.814Z,2.03
2023-04-19T07:51:09.608Z,1.58
2023-04-19T07:53:37.481Z,1.50
2023-04-19T07:56:05.529Z,1.73
2023-04-19T07:58:33.426Z,1.60
2023-04-19T08:01:01.316Z,1.80
2023-04-19T08:03:30.338Z,1.92
2023-04-19T08:05:58.054Z,1.70
2023-04-19T08:08:25.864Z,1.60
2023-04-19T08:10:55.164Z,1.90
2023-04-19T08:13:22.549Z,2.00
2023-04-19T08:18:19.912Z,2.10
2023-04-19T08:20:48.607Z,1.67
2023-04-19T08:23:22.721Z,1.97
2023-04-19T08:25:51.637Z,2.20
2023-04-19T08:28:19.297Z,2.25
2023-04-19T08:30:46.710Z,1.90
2023-04-19T08:33:14.046Z,2.15
2023-04-19T08:35:41.782Z,2.37
2023-04-19T08:38:10.335Z,3.25
2023-04-19T08:40:43.530Z,2.13
2023-04-19T08:43:10.921Z,1.48
2023-04-19T08:45:38.676Z,2.63
2023-04-19T08:48:09.710Z,2.30
2023-04-19T08:50:48.757Z,2.50
2023-04-19T08:53:29.165Z,2.47
2023-04-19T08:56:12.805Z,2.15
2023-04-19T08:59:04.122Z,2.40
2023-04-19T09:01:36.229Z,2.10
2023-04-19T09:04:21.531Z,1.83
2023-04-19T09:06:53.669Z,2.17
2023-04-19T09:09:35.512Z,2.03
2023-04-19T09:12:16.727Z,2.20
2023-04-19T09:17:18.610Z,2.42
2023-04-19T09:19:47.301Z,2.38
2023-04-19T09:22:14.865Z,2.30
2023-04-19T09:27:16.723Z,2.40
2023-04-19T09:29:53.027Z,2.40
2023-04-19T09:32:20.353Z,2.20
2023-04-19T09:34:55.184Z,2.47
2023-04-19T09:37:50.969Z,2.60
2023-04-19T09:40:24.663Z,2.37
2023-04-19T09:48:02.135Z,2.40
2023-04-19T09:50:29.645Z,2.38
2023-04-19T09:52:59.297Z,2.40
2023-04-19T09:55:29.156Z,2.40
2023-04-19T09:57:57.133Z,2.65
2023-04-19T10:00:25.617Z,2.38
2023-04-19T10:02:58.309Z,2.08
2023-04-19T10:05:26.697Z,2.30
2023-04-19T10:07:59.611Z,2.35
2023-04-19T10:10:41.432Z,2.53
2023-04-19T10:13:20.282Z,2.75
2023-04-19T10:15:54.063Z,2.60
2023-04-19T10:18:27.316Z,2.73
2023-04-19T10:21:00.034Z,2.40
2023-04-19T10:23:28.882Z,2.60
2023-04-19T10:25:58.519Z,2.40
2023-04-19T10:28:28.834Z,2.67
2023-04-19T10:31:00.972Z,2.50
2023-04-19T10:33:29.535Z,2.85
2023-04-19T10:35:58.102Z,2.63
2023-04-19T10:38:39.374Z,2.63
2023-04-19T10:41:14.521Z,2.80
2023-04-19T10:43:46.189Z,2.57
2023-04-19T10:46:36.516Z,2.38
2023-04-19T10:49:05.156Z,2.20
2023-04-19T10:51:34.256Z,2.80
2023-04-19T10:54:02.417Z,2.63
2023-04-19T10:59:40.240Z,2.70
2023-04-19T11:02:28.628Z,2.60
2023-04-19T11:05:02.097Z,2.17
2023-04-19T11:07:36.414Z,2.72
2023-04-19T11:10:04.066Z,2.90
2023-04-19T11:12:31.328Z,3.00
2023-04-19T11:15:00.434Z,2.47
2023-04-19T11:17:31.480Z,2.25
2023-04-19T11:20:00.751Z,2.72
2023-04-19T11:22:32.837Z,2.67
2023-04-19T11:25:07.898Z,2.47
2023-04-19T11:27:35.446Z,2.38
2023-04-19T11:30:05.730Z,2.80
2023-04-19T11:32:33.611Z,3.08
2023-04-19T11:35:06.163Z,3.30
2023-04-19T11:37:36.146Z,2.67
2023-04-19T11:40:07.735Z,2.95
2023-04-19T11:42:35.863Z,2.70
2023-04-19T11:45:09.021Z,3.03
2023-04-19T11:47:50.611Z,2.80
2023-04-19T11:50:36.009Z,2.60
2023-04-19T11:53:15.154Z,2.60
2023-04-19T11:55:44.302Z,2.45
2023-04-19T11:58:23.900Z,2.50
2023-04-19T12:00:52.554Z,2.73
2023-04-19T12:03:25.709Z,2.70
2023-04-19T12:05:55.580Z,2.72
2023-04-19T12:08:33.422Z,2.78
2023-04-19T12:11:03.159Z,2.40
2023-04-19T12:13:31.499Z,2.80
2023-04-19T12:16:00.611Z,2.72
2023-04-19T12:18:28.126Z,2.55
2023-04-19T12:20:55.422Z,2.70
2023-04-19T12:23:22.745Z,2.60
2023-04-19T12:25:50.383Z,2.47
2023-04-19T12:28:17.758Z,2.80
2023-04-19T12:30:45.325Z,2.60
2023-04-19T12:33:13.862Z,2.60
2023-04-19T12:35:41.239Z,2.50
2023-04-19T12:38:09.459Z,2.10
2023-04-19T12:40:36.722Z,2.60
2023-04-19T12:43:05.945Z,3.10
2023-04-19T12:45:34.954Z,2.70
2023-04-19T12:48:02.370Z,2.40
2023-04-19T12:50:31.293Z,3.50
2023-04-19T12:52:58.493Z,2.70
2023-04-19T12:55:26.157Z,2.60
2023-04-19T12:57:53.436Z,3.30
2023-04-19T13:00:21.079Z,3.40
2023-04-19T13:02:48.857Z,3.07
2023-04-19T13:05:16.252Z,3.10
2023-04-19T13:07:44.792Z,2.97
2023-04-19T13:10:12.490Z,3.10
2023-04-19T13:12:39.918Z,2.92
2023-04-19T13:15:08.563Z,2.93
2023-04-19T13:17:35.947Z,3.00
2023-04-19T13:20:03.908Z,3.33
2023-04-19T13:22:31.309Z,2.95
2023-04-19T13:24:59.964Z,2.95
2023-04-19T13:27:27.193Z,3.20
2023-04-19T13:29:55.826Z,3.63
2023-04-19T13:32:23.172Z,3.30
2023-04-19T13:34:50.379Z,3.03
2023-04-19T13:37:17.610Z,2.80
2023-04-19T13:39:44.774Z,3.20
2023-04-19T13:42:14.183Z,2.80
2023-04-19T13:44:41.417Z,2.88
2023-04-19T13:47:08.746Z,3.13
2023-04-19T13:49:36.005Z,3.00
2023-04-19T13:52:03.218Z,2.93
2023-04-19T13:54:30.431Z,2.85
2023-04-19T13:56:58.071Z,3.00
2023-04-19T13:59:26.676Z,2.80
2023-04-19T14:01:55.829Z,2.90
2023-04-19T14:04:23.726Z,2.77
2023-04-19T14:06:51.554Z,2.92
2023-04-19T14:09:18.771Z,2.88
2023-04-19T14:11:46.153Z,3.15
2023-04-19T14:14:13.417Z,3.22
2023-04-19T14:16:41.977Z,3.00
2023-04-19T14:19:09.265Z,3.35
2023-04-19T14:21:36.626Z,3.50
2023-04-19T14:24:04.462Z,3.47
2023-04-19T14:26:31.640Z,3.20
2023-04-19T14:28:58.828Z,3.50
2023-04-19T14:31:26.090Z,3.28
2023-04-19T14:33:54.680Z,3.10
2023-04-19T14:36:21.872Z,2.92
2023-04-19T14:38:49.043Z,2.90
2023-04-19T14:41:16.257Z,3.10
2023-04-19T14:43:43.493Z,3.58
2023-04-19T14:46:10.747Z,3.33
2023-04-19T14:48:38.087Z,3.33
2023-04-19T14:51:09.296Z,3.65
2023-04-19T14:53:36.456Z,3.13
2023-04-19T14:56:05.592Z,3.22
2023-04-19T14:58:32.793Z,3.47
2023-04-19T15:01:00.093Z,4.45
2023-04-19T15:03:27.662Z,3.70
2023-04-19T15:05:55.032Z,4.27
2023-04-19T15:08:30.189Z,3.70
2023-04-19T15:10:58.053Z,4.22
2023-04-19T15:13:26.776Z,3.42
2023-04-19T15:15:53.996Z,3.72
2023-04-19T15:18:21.366Z,3.93
2023-04-19T15:20:48.656Z,3.80
2023-04-19T15:23:15.913Z,3.53
2023-04-19T15:25:44.706Z,4.15
2023-04-19T15:28:11.950Z,4.03
2023-04-19T15:30:39.140Z,3.10
2023-04-19T15:33:06.386Z,3.80
2023-04-19T15:35:33.585Z,4.20
2023-04-19T15:38:00.798Z,3.67
2023-04-19T15:40:29.157Z,3.53
2023-04-19T15:42:57.677Z,3.80
2023-04-19T15:45:25.294Z,3.75
2023-04-19T15:47:52.535Z,3.55
2023-04-19T15:50:19.802Z,3.97
2023-04-19T15:52:47.049Z,4.05
2023-04-19T15:55:14.269Z,4.00
2023-04-19T15:57:41.577Z,3.85
2023-04-19T16:00:11.863Z,4.03
2023-04-19T16:02:42.724Z,3.70
2023-04-19T16:05:10.659Z,3.67
2023-04-19T16:07:37.884Z,3.70
2023-04-19T16:10:05.900Z,3.67
2023-04-19T16:12:33.090Z,3.33
2023-04-19T16:15:00.295Z,3.70
2023-04-19T16:17:28.828Z,4.20
2023-04-19T16:19:56.124Z,3.80
2023-04-19T16:22:23.348Z,4.07
2023-04-19T16:24:50.933Z,3.88
2023-04-19T16:27:18.140Z,3.67
2023-04-19T16:29:45.470Z,3.90
2023-04-19T16:32:12.870Z,4.03
2023-04-19T16:34:41.479Z,3.45
2023-04-19T16:37:08.723Z,3.75
2023-04-19T16:39:35.923Z,4.28
2023-04-19T16:42:03.340Z,3.88
2023-04-19T16:44:30.631Z,3.90
2023-04-19T16:46:57.819Z,3.70
2023-04-19T16:49:25.744Z,4.05
2023-04-19T16:51:54.257Z,4.13
2023-04-19T16:54:21.450Z,3.95
2023-04-19T16:56:48.664Z,4.67
2023-04-19T16:59:16.239Z,4.28
2023-04-19T17:01:44.338Z,4.18
2023-04-19T17:04:11.661Z,4.25
2023-04-19T17:06:39.109Z,4.10
2023-04-19T17:09:07.775Z,4.57
2023-04-19T17:11:35.106Z,4.30
2023-04-19T17:14:02.348Z,4.05
2023-04-19T17:16:29.586Z,4.28
2023-04-19T17:18:56.800Z,4.47
2023-04-19T17:21:24.033Z,4.77
2023-04-19T17:23:51.460Z,4.05
2023-04-19T17:26:19.980Z,4.50
2023-04-19T17:28:47.173Z,3.88
2023-04-19T17:31:14.437Z,4.03
2023-04-19T17:33:41.636Z,4.27
2023-04-19T17:36:09.139Z,4.50
2023-04-19T17:38:37.067Z,4.72
2023-04-19T17:41:04.934Z,4.13
2023-04-19T17:43:33.468Z,4.10
2023-04-19T17:46:00.769Z,4.27
2023-04-19T17:48:27.950Z,4.32
2023-04-19T17:50:56.075Z,4.72
2023-04-19T17:53:23.347Z,4.63
2023-04-19T17:55:51.034Z,3.92
2023-04-19T17:58:18.275Z,4.60
2023-04-19T18:00:46.794Z,4.03
2023-04-19T18:03:14.444Z,3.88
2023-04-19T18:05:42.271Z,3.85
2023-04-19T18:08:10.065Z,3.75
2023-04-19T18:10:37.335Z,3.83
2023-04-19T18:13:04.630Z,3.63
2023-04-19T18:15:31.827Z,3.63
2023-04-19T18:18:00.392Z,4.05
2023-04-19T18:20:27.810Z,4.03
2023-04-19T18:22:55.099Z,4.20
2023-04-19T18:25:22.329Z,4.20
2023-04-19T18:27:50.293Z,4.38
2023-04-19T18:30:17.507Z,4.63
2023-04-19T18:32:46.147Z,4.60
2023-04-19T18:35:15.073Z,4.70
2023-04-19T18:37:42.274Z,4.60
2023-04-19T18:40:11.684Z,4.65
2023-04-19T18:42:39.195Z,4.68
2023-04-19T18:45:07.804Z,4.18
2023-04-19T18:47:35.698Z,4.57
2023-04-19T18:50:05.603Z,4.85
2023-04-19T18:52:38.461Z,5.00
2023-04-19T18:55:06.975Z,4.75
2023-04-19T18:57:35.461Z,4.85
2023-04-19T19:00:05.862Z,4.93
2023-04-19T19:02:35.907Z,5.20
2023-04-19T19:07:37.212Z,5.22
2023-04-19T19:10:18.404Z,5.07
2023-04-19T19:12:49.120Z,4.90
2023-04-19T19:15:16.754Z,5.47
2023-04-19T19:17:48.512Z,6.05
2023-04-19T19:20:17.239Z,5.88
2023-04-19T19:22:46.176Z,5.53
2023-04-19T19:25:13.599Z,5.67
2023-04-19T19:27:41.058Z,5.65
2023-04-19T19:30:14.710Z,5.75
2023-04-19T19:32:41.936Z,5.88
2023-04-19T19:35:09.561Z,6.25
2023-04-19T19:37:37.153Z,6.93
2023-04-19T19:40:10.733Z,6.38
2023-04-19T19:42:41.468Z,6.43
2023-04-19T19:45:09.886Z,6.85
2023-04-19T19:47:43.408Z,6.88
2023-04-19T19:50:54.501Z,6.43
2023-04-19T19:53:01.507Z,5.88
2023-04-19T19:55:30.404Z,6.68
2023-04-19T20:02:59.032Z,7.37
2023-04-19T20:05:27.536Z,6.95
2023-04-19T20:08:06.046Z,7.32
2023-04-19T20:10:34.860Z,7.22
2023-04-19T20:13:02.063Z,7.43
2023-04-19T20:15:30.170Z,7.50
2023-04-19T20:17:57.486Z,6.47
2023-04-19T20:20:24.836Z,7.53
2023-04-19T20:22:52.163Z,6.88
2023-04-19T20:25:19.362Z,7.40
2023-04-19T20:27:47.933Z,6.97
2023-04-19T20:30:15.713Z,7.20
2023-04-19T20:32:43.181Z,6.85
2023-04-19T20:35:12.546Z,6.38
2023-04-19T20:37:40.087Z,6.50
2023-04-19T20:40:14.367Z,6.57
2023-04-19T20:42:42.412Z,6.38
2023-04-19T20:45:11.348Z,6.50
2023-04-19T20:47:38.860Z,6.47
2023-04-19T20:50:07.676Z,5.80
2023-04-19T20:52:35.217Z,6.30
2023-04-19T20:55:02.608Z,6.35
2023-04-19T20:57:29.834Z,5.72
2023-04-19T20:59:57.082Z,6.40
2023-04-19T21:02:25.861Z,6.20
2023-04-19T21:04:53.258Z,6.37
2023-04-19T21:07:20.578Z,5.97
2023-04-19T21:09:47.805Z,6.32
2023-04-19T21:12:15.116Z,6.60
2023-04-19T21:14:42.303Z,6.13
2023-04-19T21:17:09.506Z,6.13
2023-04-19T21:19:38.140Z,6.38
2023-04-19T21:22:05.360Z,5.80
2023-04-19T21:24:32.520Z,6.07
2023-04-19T21:26:59.696Z,6.22
2023-04-19T21:29:26.918Z,6.03
2023-04-19T21:31:54.270Z,5.68
2023-04-19T21:34:21.592Z,6.22
2023-04-19T21:36:50.171Z,6.25
2023-04-19T21:39:17.534Z,6.40
2023-04-19T21:41:44.907Z,6.57
2023-04-19T21:44:12.100Z,6.38
2023-04-19T21:46:39.349Z,6.97
2023-04-19T21:49:06.653Z,6.72
2023-04-19T21:51:33.861Z,6.10
2023-04-19T21:54:02.345Z,7.43
2023-04-19T21:56:29.719Z,6.82
2023-04-19T21:58:57.263Z,6.60
2023-04-19T22:01:24.546Z,6.88
2023-04-19T22:03:51.897Z,6.13
2023-04-19T22:06:21.818Z,6.50
2023-04-19T22:08:49.622Z,6.85
2023-04-19T22:11:18.391Z,6.63
2023-04-19T22:13:46.107Z,6.47
2023-04-19T22:16:13.750Z,6.65
2023-04-19T22:18:41.193Z,6.40
2023-04-19T22:21:09.766Z,6.80
2023-04-19T22:23:36.991Z,6.30
2023-04-19T22:26:04.528Z,6.32
2023-04-19T22:28:33.717Z,6.80
2023-04-19T22:31:00.918Z,6.33
2023-04-19T22:33:28.154Z,6.72
2023-04-19T22:35:55.360Z,6.75
2023-04-19T22:38:22.541Z,6.53
2023-04-19T22:40:49.756Z,5.63
2023-04-19T22:43:16.992Z,6.57
2023-04-19T22:45:47.645Z,6.05
2023-04-19T22:48:15.188Z,6.30
2023-04-19T22:50:42.778Z,6.68
2023-04-19T22:53:12.442Z,6.25
2023-04-19T22:55:40.004Z,5.93
2023-04-19T22:58:08.013Z,6.13
2023-04-19T23:00:35.918Z,6.10
2023-04-19T23:03:04.598Z,6.28
2023-04-19T23:05:31.852Z,6.18
2023-04-19T23:07:59.292Z,5.80
2023-04-19T23:10:26.988Z,5.85
2023-04-19T23:12:54.863Z,6.13
2023-04-19T23:15:23.202Z,6.20
2023-04-19T23:17:50.623Z,6.32
2023-04-19T23:20:19.169Z,6.40
2023-04-19T23:22:46.370Z,5.97
2023-04-19T23:25:13.713Z,6.25
2023-04-19T23:27:40.921Z,5.50
2023-04-19T23:30:08.871Z,6.20
2023-04-19T23:32:36.121Z,6.10
2023-04-19T23:35:03.691Z,5.97
2023-04-19T23:37:32.289Z,5.43
2023-04-19T23:39:59.464Z,5.68
2023-04-19T23:42:26.783Z,5.78
2023-04-19T23:44:54.999Z,5.40
2023-04-19T23:47:23.071Z,5.63
2023-04-19T23:49:50.347Z,6.30
2023-04-19T23:52:18.168Z,5.47
2023-04-19T23:54:46.719Z,5.85
2023-04-19T23:57:13.982Z,5.37
2023-04-19T23:59:41.166Z,6.00
